Time;durP1;ratioP1;P1;durP2;ratioP2;P2;SDS_P1;SDS_P2;PMS_P1;PMS_P2;Temp;Humidity;BMP_temperature;BMP_pressure;BME280_temperature;BME280_humidity;BME280_pressure;Samples;Min_cycle;Max_cycle;Signal;HPM_P1;HPM_P2
2023/10/21 00:01:45;;;;;;;15.47;5.83;;;;;;;;;;5053412;28;20299;-72
2023/10/21 00:04:10;;;;;;;15.47;5.60;;;;;;;;;;5056004;28;20263;-72
2023/10/21 00:06:35;;;;;;;15.50;5.80;;;;;;;;;;5057008;28;20263;-72
2023/10/21 00:09:00;;;;;;;12.82;5.80;;;;;;;;;;5056775;28;20360;-72
2023/10/21 00:11:26;;;;;;;20.67;6.00;;;;;;;;;;5056923;28;20123;-72
2023/10/21 00:13:51;;;;;;;18.40;6.73;;;;;;;;;;5057240;28;20021;-72
2023/10/21 00:16:16;;;;;;;14.63;6.00;;;;;;;;;;5056882;28;20259;-72
2023/10/21 00:18:41;;;;;;;11.63;6.10;;;;;;;;;;5056673;28;20056;-72
2023/10/21 00:21:06;;;;;;;16.10;5.90;;;;;;;;;;5056801;28;20079;-72
2023/10/21 00:23:32;;;;;;;14.00;6.40;;;;;;;;;;5056879;28;20290;-72
2023/10/21 00:26:00;;;;;;;10.97;5.70;;;;;;;;;;5056577;28;20074;-72
2023/10/21 00:28:25;;;;;;;11.25;5.78;;;;;;;;;;5056451;28;20298;-72
2023/10/21 00:30:50;;;;;;;13.93;6.27;;;;;;;;;;5056797;28;20013;-72
2023/10/21 00:33:15;;;;;;;15.43;6.20;;;;;;;;;;5038461;28;20025;-72
2023/10/21 00:35:45;;;;;;;16.37;5.77;;;;;;;;;;5056362;28;20376;-72
2023/10/21 00:38:10;;;;;;;13.95;5.80;;;;;;;;;;5056395;28;20044;-72
2023/10/21 00:40:35;;;;;;;9.63;5.83;;;;;;;;;;5056379;28;20025;-72
2023/10/21 00:43:00;;;;;;;12.10;5.80;;;;;;;;;;5056227;28;20267;-72
2023/10/21 00:45:25;;;;;;;10.80;5.43;;;;;;;;;;5038395;28;20291;-72
2023/10/21 00:47:51;;;;;;;13.47;5.50;;;;;;;;;;5055998;28;20029;-71
2023/10/21 00:50:16;;;;;;;10.38;5.38;;;;;;;;;;5056175;28;20619;-72
2023/10/21 00:52:46;;;;;;;12.57;5.70;;;;;;;;;;5038387;28;20380;-72
2023/10/21 00:55:11;;;;;;;14.57;5.20;;;;;;;;;;5056190;28;20476;-72
2023/10/21 00:57:37;;;;;;;11.00;5.60;;;;;;;;;;5037985;28;20028;-72
2023/10/21 01:00:10;;;;;;;20.50;5.90;;;;;;;;;;5056317;28;20025;-72
2023/10/21 01:02:35;;;;;;;16.20;5.38;;;;;;;;;;5056026;28;20024;-72
2023/10/21 01:05:01;;;;;;;14.03;5.67;;;;;;;;;;5055994;28;20032;-72
2023/10/21 01:07:26;;;;;;;10.60;5.50;;;;;;;;;;5055708;28;20757;-72
2023/10/21 01:09:51;;;;;;;17.23;5.57;;;;;;;;;;5056000;28;20021;-72
2023/10/21 01:12:16;;;;;;;13.53;5.23;;;;;;;;;;5055547;28;20340;-72
2023/10/21 01:14:41;;;;;;;14.57;6.00;;;;;;;;;;5055438;28;20288;-72
2023/10/21 01:17:08;;;;;;;10.97;4.93;;;;;;;;;;5055784;28;20264;-72
2023/10/21 01:19:33;;;;;;;9.10;5.38;;;;;;;;;;5055425;28;20347;-72
2023/10/21 01:21:58;;;;;;;11.60;5.23;;;;;;;;;;5055501;28;20103;-72
2023/10/21 01:24:23;;;;;;;12.80;5.38;;;;;;;;;;5055484;28;20266;-72
2023/10/21 01:26:49;;;;;;;10.93;5.40;;;;;;;;;;5055476;28;20021;-72
2023/10/21 01:29:14;;;;;;;10.93;4.70;;;;;;;;;;5055424;28;20361;-72
2023/10/21 01:31:40;;;;;;;10.65;4.75;;;;;;;;;;5055382;28;20259;-72
2023/10/21 01:34:05;;;;;;;11.73;4.95;;;;;;;;;;5055306;28;20258;-72
2023/10/21 01:36:30;;;;;;;13.05;5.57;;;;;;;;;;5055380;28;20423;-72
2023/10/21 01:38:55;;;;;;;15.05;5.10;;;;;;;;;;5055245;28;20450;-72
2023/10/21 01:41:20;;;;;;;11.93;4.97;;;;;;;;;;5055156;28;20415;-72
2023/10/21 01:43:45;;;;;;;12.35;5.47;;;;;;;;;;5054945;28;20032;-72
2023/10/21 01:46:11;;;;;;;12.30;5.83;;;;;;;;;;5055167;28;20078;-72
2023/10/21 01:48:36;;;;;;;18.10;5.33;;;;;;;;;;5054959;28;20388;-72
2023/10/21 01:51:04;;;;;;;12.70;5.00;;;;;;;;;;5054963;28;20062;-72
2023/10/21 01:53:31;;;;;;;16.33;5.82;;;;;;;;;;5054925;28;20017;-72
2023/10/21 01:56:02;;;;;;;16.88;5.55;;;;;;;;;;5054763;28;20028;-72
2023/10/21 01:58:28;;;;;;;14.27;5.60;;;;;;;;;;5054742;28;20021;-72
2023/10/21 02:00:53;;;;;;;17.20;5.75;;;;;;;;;;5054851;28;20025;-72
2023/10/21 02:03:18;;;;;;;12.47;5.53;;;;;;;;;;5054716;28;20380;-73
2023/10/21 02:05:44;;;;;;;12.07;5.53;;;;;;;;;;5054694;28;20025;-72
2023/10/21 02:08:09;;;;;;;21.73;6.07;;;;;;;;;;5054541;28;20021;-70
2023/10/21 02:10:38;;;;;;;14.23;5.82;;;;;;;;;;5054566;28;20096;-71
2023/10/21 02:13:03;;;;;;;14.10;5.50;;;;;;;;;;5053824;28;20041;-71
2023/10/21 02:15:28;;;;;;;10.43;5.87;;;;;;;;;;5053308;28;20078;-71
2023/10/21 02:17:53;;;;;;;15.10;5.77;;;;;;;;;;5053569;28;20271;-71
2023/10/21 02:20:19;;;;;;;10.17;5.27;;;;;;;;;;5053423;28;20044;-73
2023/10/21 02:22:44;;;;;;;15.30;5.80;;;;;;;;;;5053418;28;20252;-71
2023/10/21 02:25:11;;;;;;;12.23;5.80;;;;;;;;;;5053001;28;20274;-71
2023/10/21 02:27:36;;;;;;;14.80;5.85;;;;;;;;;;5053275;28;20302;-70
2023/10/21 02:30:04;;;;;;;15.32;5.55;;;;;;;;;;5053336;28;20021;-71
2023/10/21 02:32:30;;;;;;;16.63;5.75;;;;;;;;;;5053387;28;20014;-70
2023/10/21 02:34:58;;;;;;;16.93;6.13;;;;;;;;;;5035342;28;20024;-71
2023/10/21 02:37:23;;;;;;;12.75;6.22;;;;;;;;;;5053134;28;20309;-71
2023/10/21 02:39:48;;;;;;;12.38;5.82;;;;;;;;;;5035260;28;20025;-71
2023/10/21 02:42:13;;;;;;;14.75;6.10;;;;;;;;;;5053239;28;20057;-71
2023/10/21 02:44:39;;;;;;;10.60;5.40;;;;;;;;;;5053079;28;20021;-71
2023/10/21 02:47:04;;;;;;;14.97;5.80;;;;;;;;;;5052943;28;20261;-71
2023/10/21 02:49:29;;;;;;;20.03;6.10;;;;;;;;;;5035123;28;20325;-71
2023/10/21 02:51:55;;;;;;;12.93;5.82;;;;;;;;;;5053069;28;20643;-71
2023/10/21 02:54:20;;;;;;;12.40;5.75;;;;;;;;;;5052969;28;20013;-72
2023/10/21 02:56:45;;;;;;;12.13;6.30;;;;;;;;;;5053035;28;20017;-71
2023/10/21 02:59:10;;;;;;;16.10;6.10;;;;;;;;;;5034920;28;20032;-71
2023/10/21 03:01:35;;;;;;;14.40;6.57;;;;;;;;;;5053116;28;20626;-72
2023/10/21 03:04:02;;;;;;;13.25;6.13;;;;;;;;;;5053045;28;20063;-72
2023/10/21 03:06:27;;;;;;;11.43;6.03;;;;;;;;;;5052693;28;20383;-72
2023/10/21 03:08:52;;;;;;;10.33;5.90;;;;;;;;;;5052660;28;20532;-72
2023/10/21 03:11:17;;;;;;;15.53;6.30;;;;;;;;;;5016141;28;1044913;-71
2023/10/21 03:13:43;;;;;;;14.10;6.40;;;;;;;;;;5053430;28;20299;-71
2023/10/21 03:16:09;;;;;;;14.55;6.38;;;;;;;;;;5035043;28;20488;-71
2023/10/21 03:18:35;;;;;;;9.40;5.85;;;;;;;;;;5052781;28;20107;-71
2023/10/21 03:21:00;;;;;;;11.63;6.00;;;;;;;;;;5034644;28;20056;-72
2023/10/21 03:23:25;;;;;;;10.00;5.82;;;;;;;;;;5052862;28;20107;-72
2023/10/21 03:26:08;;;;;;;16.13;7.10;;;;;;;;;;5052937;28;20039;-72
2023/10/21 03:28:34;;;;;;;;;;;;;;;;;;5053239;28;20025;-71
2023/10/21 03:31:00;;;;;;;15.95;5.60;;;;;;;;;;5035327;28;19954;-71
2023/10/21 03:33:29;;;;;;;14.57;6.40;;;;;;;;;;5053230;28;20020;-71
2023/10/21 03:35:55;;;;;;;12.60;5.50;;;;;;;;;;5053328;28;20364;-72
2023/10/21 03:38:21;;;;;;;11.10;5.85;;;;;;;;;;5052313;28;20021;-71
2023/10/21 03:40:56;;;;;;;10.90;6.00;;;;;;;;;;5053124;28;20052;-72
2023/10/21 03:43:21;;;;;;;12.48;5.97;;;;;;;;;;5053158;28;20028;-72
2023/10/21 03:45:46;;;;;;;13.88;6.20;;;;;;;;;;5053099;28;20491;-71
2023/10/21 03:48:11;;;;;;;12.30;5.97;;;;;;;;;;5053147;28;20025;-72
2023/10/21 03:50:37;;;;;;;9.87;5.87;;;;;;;;;;5053154;28;20267;-71
2023/10/21 03:53:02;;;;;;;13.73;6.30;;;;;;;;;;5035389;28;20259;-71
2023/10/21 03:55:27;;;;;;;13.18;7.18;;;;;;;;;;5053173;28;20013;-72
2023/10/21 03:57:53;;;;;;;15.97;5.93;;;;;;;;;;5052936;28;20383;-71
2023/10/21 04:00:18;;;;;;;20.52;7.18;;;;;;;;;;5053024;28;20063;-71
2023/10/21 04:02:43;;;;;;;15.30;6.15;;;;;;;;;;5053359;28;20017;-72
2023/10/21 04:05:08;;;;;;;15.70;6.03;;;;;;;;;;5053026;28;20423;-72
2023/10/21 04:07:34;;;;;;;19.57;6.60;;;;;;;;;;5052680;28;20280;-71
2023/10/21 04:09:59;;;;;;;12.82;6.22;;;;;;;;;;5052885;28;20286;-71
2023/10/21 04:12:24;;;;;;;10.67;5.93;;;;;;;;;;5052593;28;20045;-71
2023/10/21 04:14:49;;;;;;;12.80;6.03;;;;;;;;;;5052844;28;20028;-71
2023/10/21 04:17:15;;;;;;;10.13;6.40;;;;;;;;;;5052734;28;20291;-72
2023/10/21 04:19:40;;;;;;;8.77;5.80;;;;;;;;;;5052727;28;20384;-71
2023/10/21 04:22:05;;;;;;;12.20;5.80;;;;;;;;;;5052879;28;20262;-71
2023/10/21 04:24:30;;;;;;;7.50;5.30;;;;;;;;;;5052802;28;20376;-71
2023/10/21 04:26:55;;;;;;;13.07;6.77;;;;;;;;;;5034924;28;20029;-72
2023/10/21 04:29:20;;;;;;;13.97;5.87;;;;;;;;;;5052606;28;20381;-70
2023/10/21 04:31:46;;;;;;;9.17;5.50;;;;;;;;;;5052692;28;20267;-71
2023/10/21 04:34:12;;;;;;;12.23;5.47;;;;;;;;;;5052762;28;20053;-71
2023/10/21 04:36:37;;;;;;;12.88;5.85;;;;;;;;;;5052598;28;20357;-71
2023/10/21 04:39:03;;;;;;;13.80;6.10;;;;;;;;;;5034779;28;20077;-72
2023/10/21 04:41:29;;;;;;;11.88;6.00;;;;;;;;;;5052529;28;20028;-71
2023/10/21 04:43:54;;;;;;;11.60;5.93;;;;;;;;;;5052571;28;20025;-71
2023/10/21 04:46:19;;;;;;;14.02;5.60;;;;;;;;;;5052757;28;20444;-71
2023/10/21 04:48:44;;;;;;;13.90;6.00;;;;;;;;;;5053133;28;20441;-71
2023/10/21 04:51:10;;;;;;;11.53;6.07;;;;;;;;;;5056026;28;20041;-72
2023/10/21 04:53:35;;;;;;;14.53;6.20;;;;;;;;;;5056056;28;20342;-72
2023/10/21 04:56:02;;;;;;;15.00;6.68;;;;;;;;;;5056103;28;20263;-72
2023/10/21 04:58:27;;;;;;;11.52;6.05;;;;;;;;;;5055862;28;20017;-72
2023/10/21 05:00:52;;;;;;;9.50;5.15;;;;;;;;;;5056024;28;20066;-71
2023/10/21 05:03:17;;;;;;;10.60;5.87;;;;;;;;;;5037931;28;20021;-72
2023/10/21 05:05:43;;;;;;;9.57;5.40;;;;;;;;;;5055760;28;20263;-72
2023/10/21 05:08:08;;;;;;;12.40;5.82;;;;;;;;;;5055641;28;20472;-72
2023/10/21 05:10:33;;;;;;;12.07;5.28;;;;;;;;;;5055818;28;20071;-71
2023/10/21 05:12:58;;;;;;;18.30;5.37;;;;;;;;;;5055499;28;20040;-71
2023/10/21 05:15:24;;;;;;;13.82;5.60;;;;;;;;;;5055599;28;20259;-72
2023/10/21 05:17:49;;;;;;;10.52;5.05;;;;;;;;;;5055697;28;20028;-71
2023/10/21 05:20:14;;;;;;;14.60;5.65;;;;;;;;;;5037605;28;20025;-71
2023/10/21 05:22:39;;;;;;;16.77;5.67;;;;;;;;;;5055527;28;20021;-71
2023/10/21 05:25:05;;;;;;;10.77;5.28;;;;;;;;;;5055544;28;20303;-71
2023/10/21 05:27:30;;;;;;;11.48;5.53;;;;;;;;;;5055345;28;20064;-71
2023/10/21 05:29:55;;;;;;;11.75;5.38;;;;;;;;;;5055567;28;20111;-71
2023/10/21 05:32:20;;;;;;;11.70;5.37;;;;;;;;;;5055409;28;20151;-71
2023/10/21 05:34:46;;;;;;;15.38;5.90;;;;;;;;;;5054751;28;20268;-71
2023/10/21 05:37:11;;;;;;;13.67;5.77;;;;;;;;;;5054313;28;20143;-72
2023/10/21 05:39:36;;;;;;;19.52;5.90;;;;;;;;;;5054728;28;20266;-72
2023/10/21 05:42:01;;;;;;;13.57;6.10;;;;;;;;;;5054416;28;20024;-71
2023/10/21 05:44:26;;;;;;;14.27;6.38;;;;;;;;;;5054502;28;20095;-70
2023/10/21 05:46:52;;;;;;;14.27;6.03;;;;;;;;;;5054561;28;20017;-71
2023/10/21 05:49:18;;;;;;;11.35;6.05;;;;;;;;;;5054362;28;20281;-71
2023/10/21 05:51:43;;;;;;;16.10;6.22;;;;;;;;;;5054886;28;20067;-71
2023/10/21 05:54:08;;;;;;;11.35;6.25;;;;;;;;;;5055635;28;20461;-71
2023/10/21 05:56:33;;;;;;;14.20;5.77;;;;;;;;;;5055566;28;20436;-71
2023/10/21 05:58:59;;;;;;;11.33;5.80;;;;;;;;;;5054967;28;20267;-71
2023/10/21 06:01:24;;;;;;;15.93;5.63;;;;;;;;;;5053835;28;20263;-71
2023/10/21 06:03:49;;;;;;;16.43;6.47;;;;;;;;;;5054664;28;20754;-72
2023/10/21 06:06:16;;;;;;;11.88;5.43;;;;;;;;;;5054672;28;20143;-72
2023/10/21 06:08:42;;;;;;;16.58;5.50;;;;;;;;;;5054462;28;20020;-71
2023/10/21 06:11:08;;;;;;;17.00;5.43;;;;;;;;;;5036381;28;20017;-72
2023/10/21 06:13:33;;;;;;;15.68;6.07;;;;;;;;;;5054557;28;20255;-72
2023/10/21 06:15:58;;;;;;;12.48;5.70;;;;;;;;;;5054379;28;20100;-71
2023/10/21 06:18:23;;;;;;;13.37;5.87;;;;;;;;;;5054547;28;20449;-71
2023/10/21 06:20:49;;;;;;;9.50;5.47;;;;;;;;;;5054290;28;20295;-72
2023/10/21 06:23:14;;;;;;;12.32;5.28;;;;;;;;;;5054233;28;20661;-72
2023/10/21 06:25:39;;;;;;;16.55;5.43;;;;;;;;;;5054279;28;20070;-71
2023/10/21 06:28:04;;;;;;;13.17;5.47;;;;;;;;;;5054150;28;20029;-72
2023/10/21 06:30:30;;;;;;;13.60;5.20;;;;;;;;;;5054264;28;20025;-71
2023/10/21 06:32:55;;;;;;;15.50;5.50;;;;;;;;;;5054080;28;20027;-72
2023/10/21 06:35:20;;;;;;;14.43;4.93;;;;;;;;;;5053968;28;20472;-71
2023/10/21 06:37:45;;;;;;;12.47;5.10;;;;;;;;;;5054038;28;20100;-71
2023/10/21 06:40:11;;;;;;;11.17;4.80;;;;;;;;;;5053973;28;20020;-71
2023/10/21 06:42:36;;;;;;;13.50;5.30;;;;;;;;;;5053876;28;20274;-71
2023/10/21 06:45:02;;;;;;;13.55;4.80;;;;;;;;;;5054004;28;20017;-71
2023/10/21 06:47:28;;;;;;;13.05;4.78;;;;;;;;;;5053840;28;20052;-72
2023/10/21 06:49:53;;;;;;;12.53;4.87;;;;;;;;;;5053830;28;20070;-72
2023/10/21 06:52:20;;;;;;;10.68;4.45;;;;;;;;;;5053841;28;20258;-72
2023/10/21 06:54:45;;;;;;;11.35;4.43;;;;;;;;;;5053860;28;20403;-72
2023/10/21 06:57:10;;;;;;;13.30;4.60;;;;;;;;;;5053570;28;20091;-72
2023/10/21 06:59:35;;;;;;;18.57;4.83;;;;;;;;;;5035999;28;20033;-72
2023/10/21 07:02:00;;;;;;;11.10;4.20;;;;;;;;;;5035758;28;20267;-72
2023/10/21 07:04:26;;;;;;;15.10;4.30;;;;;;;;;;5053539;28;20332;-72
2023/10/21 07:06:51;;;;;;;13.13;4.20;;;;;;;;;;5053520;28;20053;-72
2023/10/21 07:09:16;;;;;;;8.77;4.17;;;;;;;;;;5053306;28;20032;-72
2023/10/21 07:11:41;;;;;;;11.43;4.28;;;;;;;;;;5053353;28;20291;-72
2023/10/21 07:14:07;;;;;;;9.00;3.88;;;;;;;;;;5035553;28;20013;-72
2023/10/21 07:16:32;;;;;;;11.00;3.93;;;;;;;;;;5053428;28;20362;-73
2023/10/21 07:18:57;;;;;;;9.48;3.95;;;;;;;;;;5053370;28;20357;-73
2023/10/21 07:21:22;;;;;;;9.77;3.80;;;;;;;;;;5035374;28;20029;-71
2023/10/21 07:23:47;;;;;;;13.15;3.80;;;;;;;;;;5053411;28;20517;-72
2023/10/21 07:26:13;;;;;;;12.40;3.63;;;;;;;;;;5035486;28;20472;-72
2023/10/21 07:28:38;;;;;;;9.80;4.20;;;;;;;;;;5052938;28;20297;-72
2023/10/21 07:31:03;;;;;;;13.33;3.50;;;;;;;;;;5053346;28;20441;-72
2023/10/21 07:33:28;;;;;;;10.98;3.70;;;;;;;;;;5053299;28;20309;-72
2023/10/21 07:35:54;;;;;;;9.00;3.78;;;;;;;;;;5053182;28;20067;-71
2023/10/21 07:38:19;;;;;;;11.95;3.42;;;;;;;;;;5053247;28;20028;-71
2023/10/21 07:40:45;;;;;;;8.07;3.47;;;;;;;;;;5052972;28;20025;-71
2023/10/21 07:43:10;;;;;;;12.68;3.42;;;;;;;;;;5052925;28;20522;-71
2023/10/21 07:45:36;;;;;;;10.93;3.20;;;;;;;;;;5053100;28;20021;-71
2023/10/21 07:48:02;;;;;;;11.10;3.70;;;;;;;;;;5052884;28;20024;-72
2023/10/21 07:50:28;;;;;;;12.52;3.63;;;;;;;;;;5052771;28;20294;-72
2023/10/21 07:52:53;;;;;;;12.20;3.97;;;;;;;;;;5035472;28;20368;-72
2023/10/21 07:55:18;;;;;;;7.72;3.50;;;;;;;;;;5053043;28;20267;-70
2023/10/21 07:57:43;;;;;;;9.73;4.32;;;;;;;;;;5035108;28;20044;-72
2023/10/21 08:00:13;;;;;;;10.37;4.00;;;;;;;;;;5053089;28;20017;-72
2023/10/21 08:02:38;;;;;;;11.05;4.05;;;;;;;;;;5035182;28;20028;-72
2023/10/21 08:05:04;;;;;;;10.77;3.83;;;;;;;;;;5052817;28;20436;-70
2023/10/21 08:07:32;;;;;;;9.23;3.58;;;;;;;;;;5052684;28;20021;-71
2023/10/21 08:09:58;;;;;;;8.40;3.50;;;;;;;;;;5035191;28;20024;-70
2023/10/21 08:12:23;;;;;;;11.43;3.78;;;;;;;;;;5052673;28;20044;-70
2023/10/21 08:14:48;;;;;;;7.53;3.40;;;;;;;;;;5052577;28;20025;-70
2023/10/21 08:17:14;;;;;;;7.73;3.37;;;;;;;;;;5052743;28;20050;-71
2023/10/21 08:19:40;;;;;;;7.93;3.38;;;;;;;;;;5052762;28;20263;-71
2023/10/21 08:22:05;;;;;;;8.05;3.30;;;;;;;;;;5052672;28;20028;-71
2023/10/21 08:24:31;;;;;;;6.93;3.42;;;;;;;;;;5054491;28;20104;-71
2023/10/21 08:26:57;;;;;;;6.20;3.42;;;;;;;;;;5038635;28;20032;-70
2023/10/21 08:29:22;;;;;;;6.70;3.10;;;;;;;;;;5038585;28;20025;-70
2023/10/21 08:31:47;;;;;;;4.87;2.97;;;;;;;;;;5056716;28;20025;-70
2023/10/21 08:34:15;;;;;;;7.47;3.00;;;;;;;;;;5056787;28;20255;-70
2023/10/21 08:36:41;;;;;;;8.13;2.90;;;;;;;;;;5038530;28;20017;-70
2023/10/21 08:39:09;;;;;;;9.40;3.22;;;;;;;;;;5056699;28;20036;-71
2023/10/21 08:41:35;;;;;;;5.18;3.30;;;;;;;;;;5056508;28;20090;-71
2023/10/21 08:44:00;;;;;;;9.77;2.78;;;;;;;;;;5056655;28;20468;-71
2023/10/21 08:46:26;;;;;;;5.93;2.50;;;;;;;;;;5056570;28;20075;-71
2023/10/21 08:48:52;;;;;;;5.65;2.80;;;;;;;;;;5056339;28;20282;-71
2023/10/21 08:51:20;;;;;;;7.60;3.10;;;;;;;;;;5056139;28;20017;-70
2023/10/21 08:53:46;;;;;;;4.25;2.10;;;;;;;;;;5055840;28;20097;-70
2023/10/21 08:56:12;;;;;;;5.45;2.60;;;;;;;;;;5054670;28;20476;-70
2023/10/21 08:58:38;;;;;;;4.50;2.40;;;;;;;;;;5056033;28;20039;-73
2023/10/21 09:01:03;;;;;;;4.38;2.15;;;;;;;;;;5037403;28;20024;-70
2023/10/21 09:03:28;;;;;;;3.93;1.90;;;;;;;;;;5035620;28;20056;-70
2023/10/21 09:06:07;;;;;;;4.87;2.10;;;;;;;;;;5053637;28;20262;-71
2023/10/21 09:08:33;;;;;;;2.47;1.50;;;;;;;;;;5053864;28;20291;-72
2023/10/21 09:10:59;;;;;;;4.00;1.60;;;;;;;;;;5056264;28;20039;-72
2023/10/21 09:13:28;;;;;;;2.53;1.38;;;;;;;;;;5058205;28;20028;-71
2023/10/21 09:15:54;;;;;;;3.08;1.25;;;;;;;;;;5058503;28;20025;-70
2023/10/21 09:18:19;;;;;;;4.77;1.50;;;;;;;;;;5055158;28;20468;-71
2023/10/21 09:20:47;;;;;;;4.13;1.40;;;;;;;;;;5055470;28;20016;-69
2023/10/21 09:23:12;;;;;;;4.05;1.15;;;;;;;;;;5055604;28;20096;-70
2023/10/21 09:25:37;;;;;;;3.53;1.43;;;;;;;;;;5055701;28;20491;-69
2023/10/21 09:28:03;;;;;;;4.07;1.20;;;;;;;;;;5055116;28;20037;-70
2023/10/21 09:30:29;;;;;;;3.90;1.17;;;;;;;;;;5054569;28;20017;-70
2023/10/21 09:33:02;;;;;;;3.47;1.20;;;;;;;;;;5054630;28;20021;-70
2023/10/21 09:35:28;;;;;;;4.25;1.20;;;;;;;;;;5037566;28;20357;-70
2023/10/21 09:37:53;;;;;;;4.50;1.10;;;;;;;;;;5055550;28;20085;-69
2023/10/21 09:40:21;;;;;;;3.30;1.00;;;;;;;;;;5055777;28;20253;-69
2023/10/21 09:42:48;;;;;;;5.13;1.23;;;;;;;;;;5054852;28;20052;-69
2023/10/21 09:45:16;;;;;;;2.38;1.00;;;;;;;;;;5053807;28;20017;-71
2023/10/21 09:47:41;;;;;;;3.03;0.90;;;;;;;;;;5035273;28;20028;-70
2023/10/21 09:50:10;;;;;;;2.97;0.90;;;;;;;;;;5053932;28;20491;-69
2023/10/21 09:52:44;;;;;;;3.53;0.82;;;;;;;;;;5054000;28;20017;-70
2023/10/21 09:55:10;;;;;;;3.17;1.05;;;;;;;;;;5053867;28;20024;-69
2023/10/21 09:57:36;;;;;;;3.35;1.27;;;;;;;;;;5054706;28;20016;-70
2023/10/21 10:00:02;;;;;;;3.25;1.00;;;;;;;;;;5055656;28;20020;-70
2023/10/21 10:02:27;;;;;;;6.82;0.98;;;;;;;;;;5054835;28;20487;-71
2023/10/21 10:04:53;;;;;;;2.22;0.75;;;;;;;;;;5054510;28;20021;-72
2023/10/21 10:07:19;;;;;;;1.90;0.82;;;;;;;;;;5054532;28;20013;-72
2023/10/21 10:09:44;;;;;;;4.32;0.80;;;;;;;;;;5053815;28;20099;-71
2023/10/21 10:12:12;;;;;;;4.68;0.82;;;;;;;;;;5054374;28;20029;-71
2023/10/21 10:14:37;;;;;;;2.20;0.93;;;;;;;;;;5054522;28;20035;-71
2023/10/21 10:17:05;;;;;;;3.13;0.98;;;;;;;;;;5053936;28;20018;-71
2023/10/21 10:19:40;;;;;;;4.45;0.75;;;;;;;;;;5052369;28;20520;-71
2023/10/21 10:22:29;;;;;;;4.50;1.17;;;;;;;;;;5053394;28;20104;-71
2023/10/21 10:24:55;;;;;;;7.60;0.88;;;;;;;;;;5024950;28;20067;-70
2023/10/21 10:27:40;;;;;;;2.45;0.90;;;;;;;;;;5053290;28;20044;-71
2023/10/21 10:30:14;;;;;;;3.28;0.90;;;;;;;;;;5053053;28;20070;-70
2023/10/21 10:32:43;;;;;;;3.10;0.93;;;;;;;;;;5053752;28;20067;-69
2023/10/21 10:35:08;;;;;;;7.43;1.38;;;;;;;;;;5053880;28;20075;-71
2023/10/21 10:37:34;;;;;;;3.53;1.25;;;;;;;;;;5054133;28;20403;-71
2023/10/21 10:40:05;;;;;;;3.03;1.02;;;;;;;;;;5053996;28;20016;-71
2023/10/21 10:42:31;;;;;;;1.85;1.13;;;;;;;;;;5053988;28;20467;-70
2023/10/21 10:44:56;;;;;;;2.63;0.88;;;;;;;;;;5035994;28;20033;-71
2023/10/21 10:47:22;;;;;;;4.68;1.20;;;;;;;;;;5035586;28;20024;-71
2023/10/21 10:49:54;;;;;;;4.93;1.13;;;;;;;;;;5053865;28;20488;-71
2023/10/21 10:52:26;;;;;;;6.75;1.50;;;;;;;;;;5053939;28;20036;-70
2023/10/21 10:54:51;;;;;;;3.50;1.13;;;;;;;;;;5053714;28;20013;-70
2023/10/21 10:57:17;;;;;;;4.95;1.13;;;;;;;;;;5053820;28;20078;-70
2023/10/21 10:59:42;;;;;;;4.18;1.00;;;;;;;;;;5053632;28;20272;-70
2023/10/21 11:02:08;;;;;;;3.90;1.40;;;;;;;;;;5053737;28;20031;-69
2023/10/21 11:04:33;;;;;;;3.80;0.82;;;;;;;;;;5053799;28;20027;-70
2023/10/21 11:06:58;;;;;;;3.77;1.30;;;;;;;;;;5053413;28;20092;-69
2023/10/21 11:09:30;;;;;;;4.73;1.43;;;;;;;;;;5035632;28;20281;-70
2023/10/21 11:11:57;;;;;;;3.50;0.88;;;;;;;;;;5053376;28;20127;-72
2023/10/21 11:14:24;;;;;;;3.08;1.00;;;;;;;;;;5053620;28;20051;-70
2023/10/21 11:16:50;;;;;;;6.63;1.02;;;;;;;;;;5053227;28;20021;-69
2023/10/21 11:19:15;;;;;;;4.18;1.13;;;;;;;;;;5053162;28;20387;-71
2023/10/21 11:21:42;;;;;;;3.35;1.10;;;;;;;;;;5053015;28;20080;-70
2023/10/21 11:24:08;;;;;;;4.40;0.98;;;;;;;;;;5051157;28;20055;-69
2023/10/21 11:26:33;;;;;;;3.65;0.80;;;;;;;;;;5051245;28;20434;-70
2023/10/21 11:29:00;;;;;;;3.55;1.00;;;;;;;;;;5051512;28;20108;-70
2023/10/21 11:31:26;;;;;;;6.78;1.38;;;;;;;;;;5051724;28;20017;-70
2023/10/21 11:33:52;;;;;;;4.22;1.35;;;;;;;;;;5051864;28;20025;-70
2023/10/21 11:36:17;;;;;;;5.03;1.40;;;;;;;;;;5051772;28;20372;-71
2023/10/21 11:38:42;;;;;;;6.90;1.33;;;;;;;;;;5052857;28;20271;-70
2023/10/21 11:41:11;;;;;;;4.93;1.27;;;;;;;;;;5053187;28;20114;-71
2023/10/21 11:43:36;;;;;;;5.35;1.55;;;;;;;;;;5053495;28;20580;-71
2023/10/21 11:46:01;;;;;;;5.57;1.50;;;;;;;;;;5053150;28;20017;-70
2023/10/21 11:48:26;;;;;;;5.57;1.50;;;;;;;;;;5053328;28;20279;-72
2023/10/21 11:50:51;;;;;;;10.07;1.58;;;;;;;;;;5053174;28;20092;-72
2023/10/21 11:53:18;;;;;;;4.73;1.17;;;;;;;;;;5035158;28;20021;-71
2023/10/21 12:04:18;;;;;;;7.13;1.52;;;;;;;;;;5058192;28;20075;-70
2023/10/21 12:17:04;;;;;;;4.35;1.15;;;;;;;;;;5057790;28;20149;-72
2023/10/21 12:31:36;;;;;;;7.40;1.42;;;;;;;;;;5056653;28;20040;-72
2023/10/21 12:38:38;;;;;;;8.05;1.70;;;;;;;;;;5056313;28;20451;-71
2023/10/21 12:43:38;;;;;;;4.85;1.33;;;;;;;;;;5056608;28;20108;-72
2023/10/21 12:46:16;;;;;;;6.97;1.30;;;;;;;;;;5056163;28;20476;-72
2023/10/21 12:48:42;;;;;;;7.78;1.75;;;;;;;;;;5055946;28;20027;-72
2023/10/21 12:51:09;;;;;;;8.13;1.60;;;;;;;;;;5056114;28;20376;-71
2023/10/21 12:53:34;;;;;;;5.40;1.50;;;;;;;;;;5038831;28;20048;-72
2023/10/21 12:55:59;;;;;;;9.10;1.47;;;;;;;;;;5056825;28;20048;-72
2023/10/21 12:58:25;;;;;;;9.43;1.95;;;;;;;;;;5057030;28;20272;-71
2023/10/21 13:00:50;;;;;;;5.30;1.70;;;;;;;;;;5056428;28;20025;-71
2023/10/21 13:03:17;;;;;;;9.00;1.45;;;;;;;;;;5055855;28;20271;-72
2023/10/21 13:05:49;;;;;;;10.55;1.60;;;;;;;;;;5042958;28;20046;-72
2023/10/21 13:08:14;;;;;;;7.90;1.88;;;;;;;;;;5056926;28;20029;-71
2023/10/21 13:10:39;;;;;;;7.18;1.45;;;;;;;;;;5037892;28;20044;-71
2023/10/21 13:13:05;;;;;;;4.37;1.30;;;;;;;;;;5039436;28;20178;-71
2023/10/21 13:15:31;;;;;;;9.55;1.38;;;;;;;;;;5055432;28;20259;-71
2023/10/21 13:17:56;;;;;;;5.37;1.50;;;;;;;;;;5037784;28;20029;-69
2023/10/21 13:20:21;;;;;;;8.13;1.43;;;;;;;;;;5055909;28;20738;-70
2023/10/21 13:22:46;;;;;;;9.73;1.70;;;;;;;;;;5056778;28;20275;-72
2023/10/21 13:25:13;;;;;;;7.80;1.67;;;;;;;;;;5037834;28;20478;-71
2023/10/21 13:27:39;;;;;;;7.55;1.50;;;;;;;;;;5037720;28;20021;-71
2023/10/21 13:30:10;;;;;;;6.13;1.70;;;;;;;;;;5055450;28;20017;-73
2023/10/21 13:32:37;;;;;;;9.95;1.95;;;;;;;;;;5055301;28;20440;-71
2023/10/21 13:35:09;;;;;;;4.45;1.42;;;;;;;;;;5055197;28;20017;-71
2023/10/21 13:37:34;;;;;;;7.80;1.92;;;;;;;;;;5055422;28;20013;-71
2023/10/21 13:40:00;;;;;;;10.35;1.80;;;;;;;;;;5037626;28;20020;-71
2023/10/21 13:42:25;;;;;;;12.07;1.87;;;;;;;;;;5055168;28;20021;-71
2023/10/21 13:44:50;;;;;;;7.73;1.53;;;;;;;;;;5055245;28;20251;-71
2023/10/21 13:47:17;;;;;;;8.60;1.57;;;;;;;;;;5055999;28;20086;-72
2023/10/21 13:49:42;;;;;;;12.30;1.98;;;;;;;;;;5055069;28;20031;-71
2023/10/21 13:52:08;;;;;;;7.67;1.60;;;;;;;;;;5055569;28;20005;-72
2023/10/21 13:54:33;;;;;;;14.15;2.55;;;;;;;;;;5037632;28;20654;-72
2023/10/21 13:57:03;;;;;;;9.25;1.95;;;;;;;;;;5055174;28;20076;-70
2023/10/21 13:59:28;;;;;;;6.88;1.67;;;;;;;;;;5055293;28;20021;-72
2023/10/21 14:01:53;;;;;;;9.90;1.87;;;;;;;;;;5055144;28;20043;-72
2023/10/21 14:04:19;;;;;;;8.73;2.10;;;;;;;;;;5055023;28;20313;-73
2023/10/21 14:06:46;;;;;;;10.30;2.20;;;;;;;;;;5054880;28;20383;-72
2023/10/21 14:09:24;;;;;;;7.82;1.63;;;;;;;;;;5054759;28;20021;-71
2023/10/21 14:11:51;;;;;;;7.85;1.73;;;;;;;;;;5054617;28;20040;-69
2023/10/21 14:14:17;;;;;;;8.88;2.00;;;;;;;;;;5054696;28;20464;-70
2023/10/21 14:16:42;;;;;;;13.82;2.35;;;;;;;;;;5054522;28;20020;-70
2023/10/21 14:19:09;;;;;;;12.52;2.03;;;;;;;;;;5054580;28;20037;-70
2023/10/21 14:21:34;;;;;;;11.20;2.13;;;;;;;;;;5053592;28;20048;-70
2023/10/21 14:24:00;;;;;;;8.50;1.88;;;;;;;;;;5054249;28;20021;-69
2023/10/21 14:26:26;;;;;;;12.52;2.33;;;;;;;;;;5054343;28;20028;-70
2023/10/21 14:28:51;;;;;;;8.88;1.95;;;;;;;;;;5054327;28;20452;-69
2023/10/21 14:31:20;;;;;;;9.25;1.85;;;;;;;;;;5054486;28;20384;-70
2023/10/21 14:33:45;;;;;;;8.65;1.98;;;;;;;;;;5054160;28;20362;-70
2023/10/21 14:36:10;;;;;;;9.83;1.93;;;;;;;;;;5036288;28;20020;-70
2023/10/21 14:38:36;;;;;;;10.93;2.00;;;;;;;;;;5036486;28;20025;-70
2023/10/21 14:41:01;;;;;;;6.78;1.83;;;;;;;;;;5054427;28;20097;-70
2023/10/21 14:43:26;;;;;;;9.43;1.92;;;;;;;;;;5054250;28;20028;-69
2023/10/21 14:45:51;;;;;;;12.20;2.00;;;;;;;;;;5054655;28;20021;-70
2023/10/21 14:48:19;;;;;;;10.40;2.33;;;;;;;;;;5054573;28;20279;-69
2023/10/21 14:50:46;;;;;;;9.60;1.85;;;;;;;;;;5055071;28;20677;-69
2023/10/21 14:53:12;;;;;;;17.17;2.80;;;;;;;;;;5055591;28;20021;-70
2023/10/21 14:55:41;;;;;;;10.55;2.33;;;;;;;;;;5055632;28;20110;-70
2023/10/21 14:58:08;;;;;;;8.82;2.22;;;;;;;;;;5057597;28;20025;-70
2023/10/21 15:00:33;;;;;;;8.35;1.90;;;;;;;;;;5073660;28;20028;-71
2023/10/21 15:02:58;;;;;;;11.63;2.00;;;;;;;;;;5075834;28;20384;-71
2023/10/21 15:05:23;;;;;;;11.67;2.43;;;;;;;;;;5076484;28;20028;-71
2023/10/21 15:07:48;;;;;;;9.73;1.60;;;;;;;;;;5059049;28;20327;-71